Volunteer, South Dakota
Current Conditions -  °F | °C
As of 8:58 AM on Friday 28 Nov 2014 (Local Time) from KRCA Reporting Station
Few Clouds Few Clouds  
Wind Chill: 40°   Ceiling: Unl
Heat Index: 40°   Visibility: 10mi
Dew Point: 31°   Wind: 3mph
Humidity: 69%   Direction: 290°WNW
Pressure: 29.69"   Gusts: NA
Location:  44.4145°N, 103.17°W
Report Text: KRCA 281558Z AUTO 29003KT 10SM FEW180 05/M01 A2969 RMK AO2 SLP070 T00451007 $
Loading
Personal Weather Stations






























Interactive Weather Map New forecast layout! Learn more

10-Day Weather Forecast

Advertisements
Track Severe Weather on mobile